createdAt,value
2022-12-09T00:01:08.208Z,38.58
2022-12-09T00:03:35.457Z,32.00
2022-12-09T00:06:22.210Z,36.65
2022-12-09T00:08:49.560Z,37.63
2022-12-09T00:11:17.046Z,35.20
2022-12-09T00:13:43.902Z,35.22
2022-12-09T00:16:12.745Z,37.30
2022-12-09T00:18:40.085Z,29.45
2022-12-09T00:21:33.711Z,29.42
2022-12-09T00:24:07.712Z,31.80
2022-12-09T00:26:34.682Z,25.80
2022-12-09T00:29:02.189Z,29.83
2022-12-09T00:31:32.583Z,29.53
2022-12-09T00:34:01.546Z,34.10
2022-12-09T00:36:28.978Z,35.40
2022-12-09T00:38:56.921Z,32.90
2022-12-09T00:41:23.964Z,29.58
2022-12-09T00:43:50.690Z,31.42
2022-12-09T00:46:17.697Z,32.10
2022-12-09T00:48:46.022Z,29.75
2022-12-09T00:51:18.697Z,28.23
2022-12-09T00:53:45.913Z,28.48
2022-12-09T00:56:12.509Z,30.15
2022-12-09T00:58:39.380Z,32.78
2022-12-09T01:01:06.075Z,35.92
2022-12-09T01:03:33.329Z,32.28
2022-12-09T01:06:00.685Z,34.58
2022-12-09T01:08:27.349Z,36.42
2022-12-09T01:10:54.138Z,36.67
2022-12-09T01:13:21.042Z,31.85
2022-12-09T01:15:47.695Z,39.20
2022-12-09T01:18:14.515Z,44.95
2022-12-09T01:20:41.569Z,44.50
2022-12-09T01:23:08.548Z,38.67
2022-12-09T01:25:35.390Z,42.03
2022-12-09T01:28:02.210Z,35.58
2022-12-09T01:30:28.965Z,36.47
2022-12-09T01:32:55.697Z,30.77
2022-12-09T01:35:22.365Z,32.63
2022-12-09T01:37:49.022Z,34.95
2022-12-09T01:40:17.185Z,37.40
2022-12-09T01:42:45.037Z,47.22
2022-12-09T01:45:21.506Z,47.20
2022-12-09T01:47:52.836Z,44.90
2022-12-09T01:50:19.589Z,39.83
2022-12-09T01:52:46.797Z,46.67
2022-12-09T01:55:14.030Z,43.83
2022-12-09T01:57:41.007Z,41.50
2022-12-09T02:00:08.434Z,41.10
2022-12-09T02:02:37.353Z,38.40
2022-12-09T02:05:05.134Z,40.10
2022-12-09T02:07:32.238Z,41.03
2022-12-09T02:09:59.272Z,39.42
2022-12-09T02:12:40.510Z,42.92
2022-12-09T02:15:12.367Z,39.88
2022-12-09T02:18:05.789Z,37.95
2022-12-09T02:20:39.773Z,45.65
2022-12-09T02:23:12.796Z,45.95
2022-12-09T02:25:48.944Z,40.50
2022-12-09T02:28:30.919Z,50.60
2022-12-09T02:31:28.937Z,41.30
2022-12-09T02:36:47.859Z,42.53
2022-12-09T02:39:15.390Z,47.22
2022-12-09T02:41:43.974Z,47.22
2022-12-09T02:44:16.042Z,40.20
2022-12-09T02:46:43.789Z,46.67
2022-12-09T02:49:10.972Z,42.33
2022-12-09T02:51:42.465Z,45.45
2022-12-09T02:54:13.027Z,45.00
2022-12-09T02:56:42.305Z,45.00
2022-12-09T02:59:09.721Z,43.42
2022-12-09T03:02:03.439Z,43.85
2022-12-09T03:04:30.902Z,40.70
2022-12-09T03:07:25.408Z,41.63
2022-12-09T03:10:09.409Z,45.42
2022-12-09T03:12:39.089Z,42.08
2022-12-09T03:15:06.647Z,41.75
2022-12-09T03:17:37.190Z,42.40
2022-12-09T03:20:08.535Z,41.97
2022-12-09T03:22:36.273Z,43.10
2022-12-09T03:25:14.063Z,41.80
2022-12-09T03:27:43.731Z,37.72
2022-12-09T03:30:11.273Z,38.33
2022-12-09T03:32:39.235Z,44.25
2022-12-09T03:35:11.594Z,43.20
2022-12-09T03:37:40.064Z,46.47
2022-12-09T03:42:46.578Z,41.15
2022-12-09T03:45:15.977Z,38.30
2022-12-09T03:47:42.633Z,44.47
2022-12-09T03:50:10.442Z,43.28
2022-12-09T03:52:55.259Z,38.95
2022-12-09T03:55:31.620Z,42.15
2022-12-09T03:58:00.776Z,44.88
2022-12-09T04:00:27.640Z,40.28
2022-12-09T04:02:54.559Z,43.20
2022-12-09T04:05:21.626Z,41.83
2022-12-09T04:07:48.650Z,36.40
2022-12-09T04:10:15.545Z,41.72
2022-12-09T04:12:42.312Z,44.10
2022-12-09T04:15:10.328Z,43.95
2022-12-09T04:17:37.094Z,42.88
2022-12-09T04:20:04.678Z,44.88
2022-12-09T04:22:31.853Z,41.92
2022-12-09T04:24:58.474Z,38.58
2022-12-09T04:27:25.254Z,42.88
2022-12-09T04:29:51.962Z,41.83
2022-12-09T04:32:18.685Z,42.17
2022-12-09T04:34:45.425Z,41.03
2022-12-09T04:37:13.141Z,41.17
2022-12-09T04:39:41.856Z,41.20
2022-12-09T04:42:08.888Z,42.35
2022-12-09T04:44:35.744Z,42.83
2022-12-09T04:47:02.687Z,45.85
2022-12-09T04:49:29.598Z,41.15
2022-12-09T04:51:56.292Z,43.10
2022-12-09T04:54:23.045Z,38.50
2022-12-09T04:56:50.323Z,37.22
2022-12-09T04:59:16.986Z,35.15
2022-12-09T05:01:43.672Z,44.72
2022-12-09T05:04:10.677Z,40.45
2022-12-09T05:06:38.031Z,44.72
2022-12-09T05:09:05.160Z,40.25
2022-12-09T05:11:32.195Z,38.13
2022-12-09T05:13:59.150Z,39.03
2022-12-09T05:16:26.349Z,39.00
2022-12-09T05:18:53.245Z,37.15
2022-12-09T05:21:21.085Z,40.42
2022-12-09T05:23:48.561Z,36.55
2022-12-09T05:26:17.925Z,32.07
2022-12-09T05:28:45.056Z,37.70
2022-12-09T05:31:15.558Z,38.85
2022-12-09T05:33:43.318Z,42.13
2022-12-09T05:36:11.790Z,37.38
2022-12-09T05:41:06.603Z,36.42
2022-12-09T05:43:34.041Z,37.30
2022-12-09T05:46:01.898Z,45.22
2022-12-09T05:48:29.025Z,37.35
2022-12-09T05:51:01.367Z,38.03
2022-12-09T05:53:28.578Z,40.45
2022-12-09T05:55:55.606Z,37.65
2022-12-09T05:58:22.381Z,42.22
2022-12-09T06:00:49.110Z,39.38
2022-12-09T06:03:16.228Z,38.08
2022-12-09T06:05:43.375Z,33.03
2022-12-09T06:08:10.609Z,36.35
2022-12-09T06:10:41.368Z,34.92
2022-12-09T06:13:08.627Z,43.25
2022-12-09T06:15:35.964Z,39.00
2022-12-09T06:18:03.174Z,35.67
2022-12-09T06:20:30.549Z,36.15
2022-12-09T06:22:57.609Z,38.08
2022-12-09T06:25:24.726Z,33.75
2022-12-09T06:27:52.098Z,32.13
2022-12-09T06:30:19.236Z,33.40
2022-12-09T06:32:46.715Z,33.42
2022-12-09T06:35:13.966Z,29.05
2022-12-09T06:37:41.649Z,34.15
2022-12-09T06:40:09.305Z,36.17
2022-12-09T06:42:36.315Z,41.55
2022-12-09T06:45:04.162Z,36.78
2022-12-09T06:47:31.271Z,33.47
2022-12-09T06:50:06.487Z,32.88
2022-12-09T06:52:34.623Z,33.85
2022-12-09T06:55:02.203Z,35.97
2022-12-09T06:57:29.450Z,34.15
2022-12-09T06:59:56.321Z,30.38
2022-12-09T07:02:23.321Z,50.85
2022-12-09T07:04:57.305Z,31.75
2022-12-09T07:07:24.644Z,36.92
2022-12-09T07:09:51.407Z,34.67
2022-12-09T07:12:19.061Z,32.30
2022-12-09T07:14:45.758Z,30.05
2022-12-09T07:17:17.599Z,29.45
2022-12-09T07:19:45.068Z,29.00
2022-12-09T07:22:12.723Z,31.15
2022-12-09T07:24:39.995Z,34.50
2022-12-09T07:27:11.885Z,32.40
2022-12-09T07:29:41.342Z,27.88
2022-12-09T07:32:11.699Z,31.35
2022-12-09T07:34:38.903Z,40.38
2022-12-09T07:37:05.855Z,41.15
2022-12-09T07:39:32.468Z,35.75
2022-12-09T07:41:59.527Z,31.25
2022-12-09T07:44:28.423Z,40.35
2022-12-09T07:46:55.877Z,34.35
2022-12-09T07:49:23.253Z,30.33
2022-12-09T07:51:50.798Z,33.43
2022-12-09T07:54:19.132Z,35.30
2022-12-09T07:56:46.225Z,38.78
2022-12-09T07:59:14.505Z,34.92
2022-12-09T08:01:41.500Z,27.45
2022-12-09T08:04:08.537Z,32.88
2022-12-09T08:06:36.230Z,30.30
2022-12-09T08:09:07.162Z,37.78
2022-12-09T08:11:34.938Z,44.92
2022-12-09T08:14:10.490Z,36.40
2022-12-09T08:16:39.288Z,35.33
2022-12-09T08:19:06.237Z,35.85
2022-12-09T08:21:33.736Z,33.50
2022-12-09T08:24:02.287Z,35.80
2022-12-09T08:26:30.988Z,33.28
2022-12-09T08:28:58.222Z,35.22
2022-12-09T08:31:26.631Z,40.88
2022-12-09T08:36:24.091Z,43.70
2022-12-09T08:38:51.124Z,42.15
2022-12-09T08:41:35.436Z,34.80
2022-12-09T08:44:02.889Z,35.17
2022-12-09T08:46:30.032Z,35.83
2022-12-09T08:48:57.397Z,34.38
2022-12-09T08:51:24.885Z,31.80
2022-12-09T08:53:51.776Z,35.95
2022-12-09T08:56:18.918Z,31.52
2022-12-09T08:58:47.292Z,31.90
2022-12-09T09:03:42.033Z,35.38
2022-12-09T09:06:10.878Z,30.67
2022-12-09T09:08:38.486Z,31.98
2022-12-09T09:11:11.547Z,32.00
2022-12-09T09:13:42.888Z,31.25
2022-12-09T09:16:17.590Z,31.30
2022-12-09T09:18:44.929Z,30.70
2022-12-09T09:21:13.311Z,29.90
2022-12-09T09:23:40.791Z,31.63
2022-12-09T09:26:12.437Z,30.45
2022-12-09T09:28:39.896Z,29.05
2022-12-09T09:31:08.331Z,30.67
2022-12-09T09:36:09.731Z,26.67
2022-12-09T09:38:37.500Z,28.27
2022-12-09T09:41:17.368Z,27.35
2022-12-09T09:43:44.607Z,27.38
2022-12-09T09:46:19.800Z,31.30
2022-12-09T09:48:47.131Z,29.55
2022-12-09T09:51:17.754Z,30.63
2022-12-09T09:53:44.996Z,28.50
2022-12-09T09:56:28.488Z,25.20
2022-12-09T09:59:11.862Z,31.50
2022-12-09T10:01:39.074Z,29.38
2022-12-09T10:04:31.476Z,27.13
2022-12-09T10:07:22.224Z,26.50
2022-12-09T10:10:03.125Z,27.70
2022-12-09T10:13:16.050Z,28.13
2022-12-09T10:15:57.778Z,27.10
2022-12-09T10:18:36.160Z,30.80
2022-12-09T10:21:03.298Z,28.08
2022-12-09T10:23:32.031Z,30.88
2022-12-09T10:26:04.095Z,29.02
2022-12-09T10:28:35.266Z,27.33
2022-12-09T10:31:03.357Z,26.85
2022-12-09T10:33:34.376Z,26.35
2022-12-09T10:36:02.140Z,30.50
2022-12-09T10:38:30.331Z,30.83
2022-12-09T10:41:03.050Z,32.17
2022-12-09T10:43:38.967Z,29.50
2022-12-09T10:46:20.462Z,31.98
2022-12-09T10:48:48.630Z,28.83
2022-12-09T10:51:36.525Z,30.65
2022-12-09T10:54:05.737Z,30.65
2022-12-09T10:56:36.249Z,32.10
2022-12-09T10:59:13.728Z,32.33
2022-12-09T11:01:59.553Z,32.65
2022-12-09T11:04:26.854Z,32.33
2022-12-09T11:07:00.795Z,31.25
2022-12-09T11:09:29.753Z,30.42
2022-12-09T11:11:56.825Z,31.45
2022-12-09T11:14:34.205Z,28.20
2022-12-09T11:17:17.058Z,30.48
2022-12-09T11:19:47.249Z,30.73
2022-12-09T11:22:20.604Z,31.00
2022-12-09T11:24:47.409Z,30.52
2022-12-09T11:27:34.078Z,35.50
2022-12-09T11:30:12.472Z,28.15
2022-12-09T11:32:54.737Z,29.13
2022-12-09T11:35:27.831Z,31.80
2022-12-09T11:37:54.821Z,30.92
2022-12-09T11:40:23.804Z,29.73
2022-12-09T11:42:54.315Z,32.38
2022-12-09T11:45:30.949Z,32.28
2022-12-09T11:48:29.734Z,31.83
2022-12-09T11:51:00.200Z,30.65
2022-12-09T11:53:29.730Z,30.63
2022-12-09T11:56:09.603Z,29.95
2022-12-09T11:58:41.770Z,30.30
2022-12-09T12:01:13.460Z,31.52
2022-12-09T12:03:44.982Z,32.28
2022-12-09T12:06:24.355Z,32.80
2022-12-09T12:09:03.207Z,28.00
2022-12-09T12:11:36.954Z,30.50
2022-12-09T12:14:16.861Z,28.48
2022-12-09T12:16:55.461Z,32.83
2022-12-09T12:19:28.119Z,31.77
2022-12-09T12:22:31.619Z,27.48
2022-12-09T12:25:22.984Z,31.15
2022-12-09T12:28:13.412Z,34.35
2022-12-09T12:30:45.011Z,30.30
2022-12-09T12:36:25.700Z,30.20
2022-12-09T12:39:26.316Z,25.98
2022-12-09T12:42:05.095Z,30.70
2022-12-09T12:45:02.482Z,29.58
2022-12-09T12:47:55.135Z,28.90
2022-12-09T12:50:38.860Z,27.80
2022-12-09T12:53:23.710Z,29.77
2022-12-09T12:56:00.440Z,29.38
2022-12-09T12:58:29.719Z,28.08
2022-12-09T13:01:13.554Z,28.55
2022-12-09T13:04:02.150Z,30.15
2022-12-09T13:06:35.024Z,27.00
2022-12-09T13:09:06.634Z,27.65
2022-12-09T13:11:43.338Z,27.88
2022-12-09T13:14:21.213Z,27.48
2022-12-09T13:16:48.217Z,27.55
2022-12-09T13:19:43.942Z,27.73
2022-12-09T13:22:19.697Z,32.92
2022-12-09T13:25:01.839Z,29.90
2022-12-09T13:27:39.811Z,29.52
2022-12-09T13:30:15.425Z,32.65
2022-12-09T13:33:19.586Z,33.63
2022-12-09T13:36:07.192Z,32.20
2022-12-09T13:38:39.940Z,29.50
2022-12-09T13:41:31.492Z,30.42
2022-12-09T13:44:11.342Z,31.13
2022-12-09T13:46:38.082Z,31.88
2022-12-09T13:49:25.996Z,30.52
2022-12-09T13:51:54.446Z,32.30
2022-12-09T13:57:21.239Z,25.33
2022-12-09T13:59:50.603Z,26.98
2022-12-09T14:02:20.202Z,26.55
2022-12-09T14:05:08.260Z,23.65
2022-12-09T14:07:46.019Z,25.83
2022-12-09T14:10:43.138Z,23.95
2022-12-09T14:13:24.870Z,24.42
2022-12-09T14:16:10.241Z,27.13
2022-12-09T14:18:39.925Z,29.17
2022-12-09T14:21:19.161Z,25.30
2022-12-09T14:24:07.455Z,24.83
2022-12-09T14:29:51.710Z,23.27
2022-12-09T14:32:37.578Z,27.60
2022-12-09T14:35:19.569Z,24.40
2022-12-09T14:38:07.045Z,25.23
2022-12-09T14:40:42.754Z,25.50
2022-12-09T14:43:33.707Z,23.50
2022-12-09T14:46:05.916Z,25.52
2022-12-09T14:48:38.458Z,24.55
2022-12-09T14:51:10.540Z,25.08
2022-12-09T14:53:37.693Z,26.73
2022-12-09T14:56:05.154Z,27.23
2022-12-09T14:58:31.824Z,27.60
2022-12-09T15:01:02.921Z,26.77
2022-12-09T15:03:34.209Z,29.55
2022-12-09T15:06:04.926Z,35.30
2022-12-09T15:08:36.905Z,33.65
2022-12-09T15:11:16.116Z,34.25
2022-12-09T15:13:45.442Z,34.60
2022-12-09T15:16:15.336Z,34.97
2022-12-09T15:18:42.750Z,36.42
2022-12-09T15:21:09.851Z,38.33
2022-12-09T15:23:39.816Z,36.42
2022-12-09T15:26:26.561Z,46.15
2022-12-09T15:28:56.016Z,40.45
2022-12-09T15:31:26.633Z,39.17
2022-12-09T15:33:56.067Z,44.90
2022-12-09T15:36:26.575Z,40.10
2022-12-09T15:39:07.438Z,35.55
2022-12-09T15:42:02.792Z,37.50
2022-12-09T15:44:36.382Z,31.38
2022-12-09T15:47:10.153Z,29.48
2022-12-09T15:49:42.295Z,26.30
2022-12-09T15:52:08.889Z,28.70
2022-12-09T15:54:39.190Z,31.35
2022-12-09T15:57:08.455Z,31.08
2022-12-09T15:59:43.227Z,37.35
2022-12-09T16:02:22.109Z,29.65
2022-12-09T16:04:50.359Z,32.17
2022-12-09T16:07:19.476Z,31.83
2022-12-09T16:10:10.233Z,29.38
2022-12-09T16:12:37.890Z,29.77
2022-12-09T16:15:06.410Z,34.03
2022-12-09T16:17:38.807Z,35.15
2022-12-09T16:20:22.210Z,33.92
2022-12-09T16:22:49.825Z,40.72
2022-12-09T16:25:22.282Z,37.53
2022-12-09T16:27:57.555Z,39.85
2022-12-09T16:30:26.662Z,32.90
2022-12-09T16:33:00.685Z,37.17
2022-12-09T16:35:57.798Z,35.55
2022-12-09T16:38:24.755Z,36.30
2022-12-09T16:40:54.629Z,41.83
2022-12-09T16:43:23.473Z,35.42
2022-12-09T16:45:58.738Z,38.42
2022-12-09T16:48:27.565Z,40.80
2022-12-09T16:51:03.965Z,36.17
2022-12-09T16:53:33.701Z,40.60
2022-12-09T16:56:01.752Z,41.17
2022-12-09T16:58:30.240Z,41.58
2022-12-09T17:03:34.810Z,35.35
2022-12-09T17:06:01.470Z,35.25
2022-12-09T17:08:28.131Z,51.08
2022-12-09T17:10:54.729Z,42.28
2022-12-09T17:13:21.304Z,41.53
2022-12-09T17:15:47.956Z,36.75
2022-12-09T17:18:14.575Z,46.95
2022-12-09T17:20:41.121Z,44.97
2022-12-09T17:23:07.685Z,44.40
2022-12-09T17:25:34.229Z,44.78
2022-12-09T17:28:05.908Z,48.28
2022-12-09T17:30:37.675Z,49.78
2022-12-09T17:33:04.214Z,45.88
2022-12-09T17:35:33.796Z,41.63
2022-12-09T17:38:02.241Z,43.85
2022-12-09T17:42:55.230Z,48.90
2022-12-09T17:45:21.822Z,45.33
2022-12-09T17:47:48.893Z,47.60
2022-12-09T17:50:15.495Z,43.33
2022-12-09T17:52:43.071Z,45.10
2022-12-09T17:55:10.213Z,49.13
2022-12-09T17:57:36.817Z,44.45
2022-12-09T18:00:05.984Z,56.10
2022-12-09T18:02:32.857Z,46.13
2022-12-09T18:04:59.453Z,45.10
2022-12-09T18:07:25.995Z,43.45
2022-12-09T18:09:54.657Z,46.80
2022-12-09T18:12:21.747Z,57.35
2022-12-09T18:14:48.355Z,66.53
2022-12-09T18:17:14.992Z,55.67
2022-12-09T18:19:41.585Z,49.45
2022-12-09T18:22:08.271Z,54.58
2022-12-09T18:24:34.834Z,48.17
2022-12-09T18:27:01.399Z,49.72
2022-12-09T18:29:28.032Z,53.28
2022-12-09T18:31:56.864Z,51.08
2022-12-09T18:34:24.698Z,48.65
2022-12-09T18:36:51.538Z,46.58
2022-12-09T18:39:18.721Z,55.63
2022-12-09T18:41:48.074Z,58.40
2022-12-09T18:44:15.818Z,54.33
2022-12-09T18:46:47.757Z,51.15
2022-12-09T18:49:20.273Z,88.30
2022-12-09T18:51:47.696Z,69.72
2022-12-09T18:54:23.480Z,78.07
2022-12-09T18:56:54.071Z,63.30
2022-12-09T18:59:22.111Z,55.60
2022-12-09T19:01:49.265Z,51.70
2022-12-09T19:04:27.302Z,51.40
2022-12-09T19:06:56.682Z,51.25
2022-12-09T19:09:26.504Z,54.42
2022-12-09T19:11:53.441Z,58.90
2022-12-09T19:14:22.209Z,56.08
2022-12-09T19:16:49.518Z,54.40
2022-12-09T19:19:23.566Z,50.00
2022-12-09T19:21:51.134Z,52.40
2022-12-09T19:24:20.942Z,52.50
2022-12-09T19:26:47.511Z,45.65
2022-12-09T19:29:14.631Z,42.42
2022-12-09T19:31:44.551Z,44.17
2022-12-09T19:34:22.554Z,50.15
2022-12-09T19:36:51.036Z,41.13
2022-12-09T19:39:19.136Z,43.42
2022-12-09T19:41:46.145Z,42.45
2022-12-09T19:44:21.504Z,44.65
2022-12-09T19:46:58.014Z,47.08
2022-12-09T19:49:24.776Z,42.78
2022-12-09T19:51:52.000Z,49.45
2022-12-09T19:54:21.442Z,46.53
2022-12-09T19:56:51.802Z,44.42
2022-12-09T19:59:18.335Z,54.67
2022-12-09T20:01:45.563Z,46.67
2022-12-09T20:04:47.035Z,39.45
2022-12-09T20:07:07.476Z,40.25
2022-12-09T20:09:35.078Z,45.17
2022-12-09T20:12:01.617Z,45.50
2022-12-09T20:14:28.212Z,54.13
2022-12-09T20:16:54.747Z,63.35
2022-12-09T20:19:21.318Z,52.25
2022-12-09T20:21:48.832Z,53.03
2022-12-09T20:24:15.413Z,54.08
2022-12-09T20:26:42.051Z,54.25
2022-12-09T20:29:11.324Z,52.70
2022-12-09T20:31:38.733Z,60.65
2022-12-09T20:34:13.563Z,59.40
2022-12-09T20:36:42.156Z,58.55
2022-12-09T20:39:15.210Z,61.13
2022-12-09T20:41:42.397Z,62.55
2022-12-09T20:44:09.894Z,66.30
2022-12-09T20:46:36.713Z,55.13
2022-12-09T20:49:03.426Z,66.68
2022-12-09T20:51:35.135Z,53.72
2022-12-09T20:54:02.351Z,51.60
2022-12-09T20:56:29.967Z,52.78
2022-12-09T20:58:57.602Z,58.60
2022-12-09T21:01:31.042Z,49.13
2022-12-09T21:03:59.097Z,44.65
2022-12-09T21:06:31.596Z,44.42
2022-12-09T21:09:07.338Z,51.10
2022-12-09T21:11:33.948Z,46.50
2022-12-09T21:14:02.015Z,45.05
2022-12-09T21:16:32.035Z,53.50
2022-12-09T21:19:01.990Z,53.63
2022-12-09T21:21:33.933Z,63.13
2022-12-09T21:24:00.727Z,48.17
2022-12-09T21:26:27.510Z,49.33
2022-12-09T21:28:54.626Z,47.40
2022-12-09T21:31:26.774Z,50.42
2022-12-09T21:33:55.446Z,45.25
2022-12-09T21:36:24.926Z,53.92
2022-12-09T21:38:52.183Z,48.70
2022-12-09T21:41:21.485Z,46.00
2022-12-09T21:43:48.145Z,49.88
2022-12-09T21:46:20.351Z,50.42
2022-12-09T21:48:52.192Z,46.22
2022-12-09T21:51:19.607Z,42.97
2022-12-09T21:53:46.938Z,46.33
2022-12-09T21:56:15.800Z,45.03
2022-12-09T21:58:43.906Z,50.65
2022-12-09T22:01:17.689Z,47.25
2022-12-09T22:03:45.148Z,57.40
2022-12-09T22:06:12.360Z,50.80
2022-12-09T22:08:40.268Z,47.63
2022-12-09T22:11:14.046Z,49.17
2022-12-09T22:13:40.810Z,48.35
2022-12-09T22:16:16.493Z,49.25
2022-12-09T22:18:43.192Z,47.92
2022-12-09T22:21:28.625Z,47.47
2022-12-09T22:23:58.816Z,54.78
2022-12-09T22:26:25.877Z,52.13
2022-12-09T22:28:53.021Z,50.20
2022-12-09T22:31:22.491Z,57.45
2022-12-09T22:33:51.126Z,60.42
2022-12-09T22:36:18.414Z,60.78
2022-12-09T22:38:45.159Z,56.22
2022-12-09T22:41:14.510Z,48.80
2022-12-09T22:43:42.099Z,50.83
2022-12-09T22:46:12.273Z,48.30
2022-12-09T22:48:40.004Z,51.53
2022-12-09T22:51:20.824Z,54.08
2022-12-09T22:53:49.189Z,49.85
2022-12-09T22:58:42.463Z,47.50
2022-12-09T23:01:14.402Z,49.25
2022-12-09T23:03:41.390Z,51.05
2022-12-09T23:06:08.610Z,52.90
2022-12-09T23:08:36.118Z,51.05
2022-12-09T23:11:04.734Z,48.10
2022-12-09T23:13:34.954Z,53.15
2022-12-09T23:16:05.407Z,50.97
2022-12-09T23:18:33.651Z,50.08
2022-12-09T23:21:09.632Z,47.97
2022-12-09T23:23:36.489Z,55.50
2022-12-09T23:26:07.948Z,49.22
2022-12-09T23:28:39.062Z,46.83
2022-12-09T23:31:08.943Z,60.92
2022-12-09T23:33:36.566Z,67.03
2022-12-09T23:36:11.732Z,59.05
2022-12-09T23:38:38.325Z,56.78
2022-12-09T23:41:05.694Z,51.55
2022-12-09T23:43:33.647Z,54.20
2022-12-09T23:46:15.132Z,49.25
2022-12-09T23:48:43.864Z,56.33
2022-12-09T23:51:11.558Z,57.03
2022-12-09T23:53:39.251Z,56.33
2022-12-09T23:56:06.842Z,55.83
2022-12-09T23:58:33.998Z,54.03
